Time;durP1;ratioP1;P1;durP2;ratioP2;P2;SDS_P1;SDS_P2;PMS_P1;PMS_P2;Temp;Humidity;BMP_temperature;BMP_pressure;BME280_temperature;BME280_humidity;BME280_pressure;Samples;Min_cycle;Max_cycle;Signal;HPM_P1;HPM_P2
2021/04/30 00:00:40;;;;;;;17.87;12.17;;;;;;;18.46;58.15;94877.97;5069314;28;20434;-75
2021/04/30 00:03:07;;;;;;;19.07;11.97;;;;;;;18.49;57.63;94876.56;5069672;28;20448;-69
2021/04/30 00:05:33;;;;;;;19.93;13.47;;;;;;;18.31;58.17;94870.34;5069283;28;20449;-76
2021/04/30 00:08:00;;;;;;;19.77;13.53;;;;;;;18.27;59.08;94877.34;5069285;28;20997;-69
2021/04/30 00:10:27;;;;;;;21.17;15.07;;;;;;;18.04;58.89;94868.63;5069907;28;20473;-71
2021/04/30 00:12:55;;;;;;;21.63;14.47;;;;;;;17.98;59.60;94883.09;5069670;28;20571;-74
2021/04/30 00:15:22;;;;;;;22.27;14.93;;;;;;;18.04;59.48;94873.16;5069698;28;20540;-69
2021/04/30 00:17:49;;;;;;;21.20;15.17;;;;;;;18.03;59.54;94877.66;5069440;28;20445;-77
2021/04/30 00:20:16;;;;;;;19.30;14.67;;;;;;;17.96;59.15;94874.66;5069129;28;20442;-75
2021/04/30 00:22:43;;;;;;;26.00;16.33;;;;;;;17.95;59.83;94877.63;5069183;28;20446;-74
2021/04/30 00:25:11;;;;;;;25.63;16.03;;;;;;;17.91;59.59;94877.44;5069528;28;20430;-71
2021/04/30 00:27:38;;;;;;;21.60;15.03;;;;;;;17.93;59.99;94879.78;5069078;28;20436;-73
2021/04/30 00:30:07;;;;;;;25.60;15.33;;;;;;;17.83;60.01;94875.50;5069651;28;20438;-71
2021/04/30 00:32:34;;;;;;;23.00;16.23;;;;;;;18.11;59.33;94886.75;5069043;28;20474;-73
2021/04/30 00:35:04;;;;;;;19.53;15.53;;;;;;;18.18;59.78;94881.81;5069318;28;20430;-69
2021/04/30 00:37:30;;;;;;;20.77;14.97;;;;;;;18.17;59.63;94896.19;5069060;28;20673;-74
2021/04/30 00:39:56;;;;;;;21.17;15.33;;;;;;;18.12;59.71;94899.72;5069360;28;20482;-75
2021/04/30 00:42:23;;;;;;;19.90;14.27;;;;;;;18.05;59.79;94898.56;5075361;28;20442;-70
2021/04/30 00:44:50;;;;;;;18.93;14.37;;;;;;;17.94;60.17;94902.53;5055400;28;20994;-71
2021/04/30 00:47:31;;;;;;;20.77;14.27;;;;;;;17.70;60.85;94912.66;5068999;28;20932;-74
2021/04/30 00:50:04;;;;;;;18.77;13.67;;;;;;;17.74;61.20;94908.31;5069250;28;20939;-72
2021/04/30 00:52:31;;;;;;;20.33;13.97;;;;;;;17.64;61.29;94908.53;5069484;28;20538;-72
2021/04/30 00:55:00;;;;;;;19.70;13.50;;;;;;;17.67;61.23;94905.28;5068826;28;20537;-74
2021/04/30 00:57:28;;;;;;;21.77;14.10;;;;;;;17.54;61.41;94892.84;5069428;28;20449;-75
2021/04/30 00:59:55;;;;;;;16.23;13.30;;;;;;;17.61;61.45;94909.16;5069418;28;20437;-72
2021/04/30 01:02:21;;;;;;;19.83;12.90;;;;;;;17.54;61.48;94900.81;5068781;28;21002;-75
2021/04/30 01:04:49;;;;;;;15.13;12.03;;;;;;;17.51;61.85;94914.66;5068952;28;20837;-73
2021/04/30 01:07:15;;;;;;;18.27;12.30;;;;;;;17.44;61.77;94914.25;5069244;28;20438;-72
2021/04/30 01:09:41;;;;;;;18.03;12.83;;;;;;;17.24;61.73;94895.03;5068945;28;20461;-73
2021/04/30 01:12:09;;;;;;;14.00;12.50;;;;;;;17.48;61.91;94915.25;5068797;28;20533;-72
2021/04/30 01:14:36;;;;;;;18.33;13.07;;;;;;;17.53;61.74;94907.19;5068900;28;20433;-74
2021/04/30 01:17:03;;;;;;;17.10;13.17;;;;;;;17.60;61.57;94910.22;5068694;28;20507;-76
2021/04/30 01:19:30;;;;;;;17.23;12.87;;;;;;;17.60;61.53;94904.91;5069429;28;20899;-72
2021/04/30 01:21:58;;;;;;;19.43;13.23;;;;;;;17.59;61.29;94908.66;5068786;28;20526;-71
2021/04/30 01:24:26;;;;;;;19.83;11.83;;;;;;;17.42;62.38;94911.09;5068852;28;20440;-72
2021/04/30 01:26:53;;;;;;;22.33;12.93;;;;;;;17.34;62.51;94922.38;5068731;28;20460;-73
2021/04/30 01:29:20;;;;;;;19.53;13.57;;;;;;;17.39;61.90;94922.31;5070961;28;20438;-72
2021/04/30 01:31:48;;;;;;;21.43;12.83;;;;;;;17.35;62.05;94926.63;5072332;28;20994;-72
2021/04/30 01:34:15;;;;;;;15.73;12.90;;;;;;;17.41;61.42;94936.03;5072682;28;20523;-70
2021/04/30 01:36:42;;;;;;;19.33;12.83;;;;;;;17.31;62.39;94933.59;5072539;28;20529;-72
2021/04/30 01:39:12;;;;;;;17.33;13.23;;;;;;;17.27;62.13;94935.25;5072939;28;20438;-74
2021/04/30 01:41:41;;;;;;;19.00;12.87;;;;;;;17.27;62.07;94940.53;5072474;28;20836;-72
2021/04/30 01:44:10;;;;;;;23.03;13.37;;;;;;;17.44;61.94;94940.75;5072342;28;20464;-71
2021/04/30 01:46:38;;;;;;;16.70;12.43;;;;;;;17.45;61.61;94937.00;5073168;28;20433;-75
2021/04/30 01:49:06;;;;;;;16.90;12.67;;;;;;;17.47;61.79;94934.84;5072417;28;20549;-72
2021/04/30 01:51:35;;;;;;;17.37;12.57;;;;;;;17.35;61.75;94931.91;5072375;28;20533;-72
2021/04/30 01:54:05;;;;;;;18.80;12.57;;;;;;;17.32;61.64;94927.22;5075242;28;20470;-77
2021/04/30 01:56:33;;;;;;;19.13;12.90;;;;;;;17.18;62.15;94932.53;5076329;28;20446;-69
2021/04/30 01:59:00;;;;;;;22.97;13.33;;;;;;;17.12;62.36;94934.47;5072550;28;20473;-75
2021/04/30 02:01:26;;;;;;;18.27;13.43;;;;;;;16.98;62.64;94922.31;5071962;28;20441;-73
2021/04/30 02:03:58;;;;;;;18.47;12.90;;;;;;;17.02;62.84;94939.19;5053635;28;20504;-70
2021/04/30 02:06:25;;;;;;;20.83;13.63;;;;;;;16.99;63.01;94935.25;5076691;28;20481;-69
2021/04/30 02:08:55;;;;;;;19.13;13.43;;;;;;;17.14;62.65;94942.91;5074424;28;20518;-71
2021/04/30 02:11:22;;;;;;;20.10;13.17;;;;;;;17.27;62.18;94951.13;5053704;28;20888;-73
2021/04/30 02:13:49;;;;;;;20.87;13.30;;;;;;;16.88;63.15;94938.38;5071128;28;20493;-77
2021/04/30 02:16:15;;;;;;;24.90;14.03;;;;;;;16.85;63.98;94938.97;5071812;28;20991;-72
2021/04/30 02:18:42;;;;;;;18.67;12.63;;;;;;;16.82;63.63;94953.56;5071491;28;20477;-71
2021/04/30 02:21:08;;;;;;;16.53;11.93;;;;;;;16.75;63.95;94949.75;5072055;28;20474;-70
2021/04/30 02:23:35;;;;;;;20.43;13.10;;;;;;;16.72;64.25;94940.53;5071486;28;20952;-73
2021/04/30 02:26:01;;;;;;;14.40;12.23;;;;;;;16.83;63.23;94957.81;5071639;28;20447;-71
2021/04/30 02:28:27;;;;;;;17.97;13.23;;;;;;;16.80;64.26;94952.31;5053171;28;20831;-73
2021/04/30 02:30:54;;;;;;;22.00;13.00;;;;;;;16.57;64.28;94946.09;5071695;28;20430;-77
2021/04/30 02:33:21;;;;;;;17.70;12.77;;;;;;;16.60;64.59;94952.66;5071255;28;20478;-74
2021/04/30 02:35:49;;;;;;;25.57;14.23;;;;;;;16.24;65.41;94947.13;5074901;28;20831;-73
2021/04/30 02:38:18;;;;;;;20.00;13.40;;;;;;;16.35;65.20;94950.41;5071124;28;20446;-74
2021/04/30 02:40:47;;;;;;;24.27;13.77;;;;;;;16.33;65.10;94948.03;5071000;28;20438;-73
2021/04/30 02:43:16;;;;;;;19.47;14.60;;;;;;;16.42;64.88;94953.47;5070854;28;20461;-73
2021/04/30 02:45:44;;;;;;;21.53;13.97;;;;;;;16.44;64.64;94953.97;5071055;28;20832;-74
2021/04/30 02:48:22;;;;;;;21.03;13.33;;;;;;;16.46;65.13;94951.81;5071250;28;20548;-75
2021/04/30 02:50:49;;;;;;;18.03;13.67;;;;;;;16.60;64.13;94964.03;5071338;28;20484;-75
2021/04/30 02:53:15;;;;;;;20.77;14.03;;;;;;;16.49;64.47;94962.63;5070925;28;20495;-74
2021/04/30 02:55:41;;;;;;;21.13;13.00;;;;;;;16.58;64.89;94960.09;5071055;28;20452;-73
2021/04/30 02:58:10;;;;;;;19.50;13.80;;;;;;;16.59;64.54;94961.66;5071041;28;20512;-74
2021/04/30 03:00:36;;;;;;;18.17;13.87;;;;;;;16.51;64.38;94965.00;5070698;28;20448;-73
2021/04/30 03:03:03;;;;;;;27.13;14.07;;;;;;;16.52;64.70;94967.34;5070752;28;20430;-73
2021/04/30 03:05:30;;;;;;;24.00;14.60;;;;;;;16.36;64.96;94971.28;5070686;28;20446;-74
2021/04/30 03:07:56;;;;;;;27.73;14.67;;;;;;;16.34;65.68;94985.84;5070017;28;20492;-72
2021/04/30 03:10:23;;;;;;;22.47;14.33;;;;;;;15.83;67.17;94980.53;5070841;28;20885;-73
2021/04/30 03:12:51;;;;;;;21.53;14.70;;;;;;;16.06;66.31;94980.47;5070506;28;20892;-74
2021/04/30 03:15:17;;;;;;;22.03;14.33;;;;;;;15.57;68.03;94984.56;5070791;28;20457;-72
2021/04/30 03:17:46;;;;;;;19.60;15.10;;;;;;;16.02;66.68;95000.59;5070637;28;20438;-77
2021/04/30 03:20:14;;;;;;;26.27;15.73;;;;;;;15.65;68.01;95005.09;5070307;28;20426;-72
2021/04/30 03:22:41;;;;;;;21.13;13.57;;;;;;;15.98;67.13;95004.13;5070227;28;20486;-74
2021/04/30 03:25:08;;;;;;;23.57;15.30;;;;;;;16.14;66.30;95002.81;5070464;28;20492;-75
2021/04/30 03:27:35;;;;;;;22.83;14.53;;;;;;;16.26;66.07;95005.81;5070822;28;20525;-73
2021/04/30 03:30:01;;;;;;;20.00;14.53;;;;;;;16.13;65.43;95002.03;5079785;28;20442;-71
2021/04/30 03:32:29;;;;;;;25.57;14.13;;;;;;;15.97;66.69;95007.81;5073763;28;20517;-72
2021/04/30 03:34:55;;;;;;;23.47;15.20;;;;;;;15.98;66.45;95009.41;5052468;28;20897;-74
2021/04/30 03:37:22;;;;;;;25.37;16.27;;;;;;;15.84;67.31;95016.44;5070486;28;20803;-74
2021/04/30 03:39:49;;;;;;;25.43;17.00;;;;;;;15.33;69.66;95016.25;5069863;28;20525;-74
2021/04/30 03:42:17;;;;;;;30.50;18.17;;;;;;;15.36;69.62;95010.44;5069924;28;20472;-76
2021/04/30 03:44:45;;;;;;;32.17;17.73;;;;;;;15.22;69.98;95018.22;5069880;28;20473;-72
2021/04/30 03:47:12;;;;;;;26.87;18.37;;;;;;;15.46;69.09;95020.09;5069635;28;20433;-70
2021/04/30 03:49:39;;;;;;;29.40;20.30;;;;;;;15.44;68.73;95016.97;5070090;28;20473;-73
2021/04/30 03:52:06;;;;;;;29.90;19.80;;;;;;;15.36;69.32;95028.13;5051196;28;20437;-73
2021/04/30 03:54:33;;;;;;;30.87;20.37;;;;;;;15.21;69.51;95007.97;5051604;28;20478;-72
2021/04/30 03:56:59;;;;;;;28.43;21.37;;;;;;;15.38;69.50;95041.84;5068628;28;21226;-72
2021/04/30 03:59:26;;;;;;;28.17;21.37;;;;;;;15.29;69.61;95028.44;5069174;28;20567;-71
2021/04/30 04:01:53;;;;;;;33.03;20.40;;;;;;;15.46;69.19;95034.09;5069412;28;20533;-71
2021/04/30 04:04:19;;;;;;;29.37;20.97;;;;;;;15.59;68.82;95032.63;5069701;28;20456;-76
2021/04/30 04:06:45;;;;;;;30.10;20.63;;;;;;;15.60;67.84;95031.56;5069283;28;20445;-72
2021/04/30 04:09:13;;;;;;;30.83;18.97;;;;;;;15.75;67.93;95052.50;5069174;28;20549;-76
2021/04/30 04:11:40;;;;;;;36.07;22.23;;;;;;;15.53;68.80;95060.19;5069462;28;20507;-72
2021/04/30 04:14:07;;;;;;;29.93;21.53;;;;;;;15.74;68.51;95064.94;5069286;28;20848;-72
2021/04/30 04:16:34;;;;;;;26.27;19.77;;;;;;;15.97;68.11;95063.31;5070521;28;20434;-72
2021/04/30 04:19:01;;;;;;;27.07;19.93;;;;;;;15.93;67.56;95060.47;5068975;28;20441;-71
2021/04/30 04:21:27;;;;;;;37.90;19.53;;;;;;;16.03;67.46;95060.34;5069442;28;20442;-76
2021/04/30 04:23:54;;;;;;;32.33;20.23;;;;;;;16.12;67.04;95068.41;5069150;28;20438;-73
2021/04/30 04:26:20;;;;;;;32.57;20.40;;;;;;;16.09;67.65;95079.56;5069502;28;20485;-72
2021/04/30 04:28:47;;;;;;;26.53;20.10;;;;;;;16.21;67.93;95090.50;5068885;28;20463;-72
2021/04/30 04:31:13;;;;;;;30.70;19.43;;;;;;;16.32;67.64;95097.22;5069767;28;20534;-71
2021/04/30 04:33:39;;;;;;;26.50;17.57;;;;;;;16.26;67.63;95095.69;5068751;28;20509;-73
2021/04/30 04:36:06;;;;;;;32.27;18.37;;;;;;;16.38;66.73;95104.00;5069345;28;20438;-72
2021/04/30 04:38:33;;;;;;;25.53;16.97;;;;;;;16.80;65.89;95103.94;5069054;28;21006;-71
2021/04/30 04:40:59;;;;;;;25.50;17.93;;;;;;;16.88;65.26;95103.28;5051313;28;20858;-72
2021/04/30 04:43:26;;;;;;;26.80;17.90;;;;;;;16.98;65.45;95119.00;5068922;28;20517;-73
2021/04/30 04:45:53;;;;;;;24.50;17.53;;;;;;;17.00;65.57;95106.28;5069338;28;20448;-72
2021/04/30 04:48:19;;;;;;;20.80;18.20;;;;;;;17.06;64.43;95106.97;5068905;28;20793;-71
2021/04/30 04:50:46;;;;;;;24.20;19.33;;;;;;;17.21;64.88;95112.00;5069505;28;20484;-75
2021/04/30 04:53:23;;;;;;;32.63;19.70;;;;;;;17.23;64.19;95118.59;5071559;28;20469;-71
2021/04/30 04:56:10;;;;;;;27.30;19.30;;;;;;;16.89;64.33;95120.75;5075077;28;20958;-77
2021/04/30 04:58:36;;;;;;;29.03;20.07;;;;;;;16.95;64.90;95114.28;5069127;28;20434;-74
2021/04/30 05:01:04;;;;;;;29.87;19.67;;;;;;;16.99;64.23;95131.16;5069448;28;20519;-74
2021/04/30 05:03:30;;;;;;;33.70;20.20;;;;;;;16.50;65.93;95138.78;5070760;28;20442;-76
2021/04/30 05:05:57;;;;;;;31.13;22.07;;;;;;;16.29;67.03;95126.88;5072853;28;20485;-76
2021/04/30 05:08:23;;;;;;;32.67;20.80;;;;;;;16.45;66.62;95114.22;5072545;28;20472;-74
2021/04/30 05:10:50;;;;;;;29.37;19.27;;;;;;;16.73;66.06;95116.72;5072786;28;20491;-78
2021/04/30 05:13:16;;;;;;;29.70;18.27;;;;;;;16.95;65.60;95119.56;5072994;28;20537;-74
2021/04/30 05:15:54;;;;;;;29.70;18.40;;;;;;;17.01;64.76;95114.97;5073205;28;20433;-74
2021/04/30 05:18:20;;;;;;;30.43;18.37;;;;;;;17.17;64.59;95117.09;5072757;28;20816;-71
2021/04/30 05:20:47;;;;;;;30.30;19.00;;;;;;;17.19;64.56;95114.94;5055388;28;20430;-72
2021/04/30 05:23:14;;;;;;;30.97;18.90;;;;;;;17.37;64.61;95104.59;5072861;28;20807;-73
2021/04/30 05:25:40;;;;;;;29.37;18.97;;;;;;;17.65;63.86;95111.50;5072800;28;20442;-77
2021/04/30 05:28:07;;;;;;;26.80;19.27;;;;;;;17.76;63.19;95112.88;5072627;28;20438;-71
2021/04/30 05:30:33;;;;;;;27.80;19.77;;;;;;;17.68;64.06;95110.94;5072835;28;20446;-74
2021/04/30 05:33:01;;;;;;;27.67;19.00;;;;;;;17.81;63.59;95104.84;5071896;28;20469;-75
2021/04/30 05:35:29;;;;;;;32.13;19.43;;;;;;;17.85;63.55;95111.09;5072278;28;20450;-77
2021/04/30 05:37:56;;;;;;;22.40;16.83;;;;;;;17.74;62.57;95112.38;5054434;28;20442;-73
2021/04/30 05:40:23;;;;;;;35.27;18.43;;;;;;;17.70;62.83;95108.78;5072044;28;20430;-73
2021/04/30 05:42:49;;;;;;;27.80;17.83;;;;;;;17.81;63.96;95121.50;5071943;28;20438;-73
2021/04/30 05:45:16;;;;;;;27.87;18.03;;;;;;;17.87;63.16;95120.34;5054253;28;20445;-72
2021/04/30 05:47:43;;;;;;;26.53;18.13;;;;;;;18.22;62.03;95121.50;5071927;28;20440;-74
2021/04/30 05:50:11;;;;;;;26.23;16.60;;;;;;;18.20;61.66;95118.34;5072051;28;20438;-78
2021/04/30 05:52:38;;;;;;;25.13;16.33;;;;;;;18.19;61.26;95112.25;5053676;28;20484;-72
2021/04/30 05:55:06;;;;;;;23.50;16.80;;;;;;;18.08;62.20;95120.75;5071617;28;20438;-71
2021/04/30 05:57:32;;;;;;;25.57;16.97;;;;;;;18.20;61.81;95123.66;5071828;28;20923;-74
2021/04/30 05:59:58;;;;;;;20.93;16.87;;;;;;;18.14;60.65;95125.63;5071897;28;20944;-73
2021/04/30 06:02:25;;;;;;;28.67;17.73;;;;;;;18.26;61.67;95127.78;5053852;28;20429;-70
2021/04/30 06:04:53;;;;;;;22.90;15.80;;;;;;;18.29;61.07;95132.47;5072121;28;20496;-74
2021/04/30 06:07:19;;;;;;;27.60;16.10;;;;;;;18.42;61.38;95115.78;5071461;28;20442;-73
2021/04/30 06:09:46;;;;;;;20.67;15.23;;;;;;;18.45;61.50;95128.44;5071739;28;20478;-72
2021/04/30 06:12:13;;;;;;;26.10;15.60;;;;;;;18.61;60.41;95119.06;5071897;28;20441;-71
2021/04/30 06:14:41;;;;;;;22.43;14.40;;;;;;;18.77;59.89;95111.56;5071041;28;20485;-75
2021/04/30 06:17:07;;;;;;;19.53;13.87;;;;;;;18.89;60.12;95120.53;5081361;28;20450;-69
2021/04/30 06:19:35;;;;;;;20.93;12.70;;;;;;;18.94;59.66;95109.81;5079197;28;20433;-76
2021/04/30 06:22:02;;;;;;;24.07;13.07;;;;;;;19.08;59.56;95112.41;5071325;28;20511;-72
2021/04/30 06:24:29;;;;;;;19.30;11.83;;;;;;;19.20;58.38;95116.06;5071804;28;20525;-75
2021/04/30 06:26:55;;;;;;;19.27;12.20;;;;;;;19.21;58.34;95111.56;5071455;28;20442;-75
2021/04/30 06:29:22;;;;;;;25.30;12.37;;;;;;;19.45;56.83;95111.25;5053392;28;20199;-71
2021/04/30 06:31:49;;;;;;;19.90;11.53;;;;;;;19.44;55.14;95121.09;5071205;28;20503;-74
2021/04/30 06:34:15;;;;;;;17.37;9.97;;;;;;;19.70;55.82;95113.22;5071407;28;20473;-71
2021/04/30 06:36:42;;;;;;;17.73;11.07;;;;;;;19.73;56.08;95109.94;5071031;28;20438;-73
2021/04/30 06:39:08;;;;;;;19.87;10.50;;;;;;;19.94;55.41;95124.28;5071096;28;20529;-74
2021/04/30 06:41:34;;;;;;;16.87;8.73;;;;;;;20.13;53.83;95111.50;5071489;28;20445;-76
2021/04/30 06:44:01;;;;;;;16.47;8.87;;;;;;;19.96;53.31;95101.59;5070921;28;20449;-71
2021/04/30 06:46:28;;;;;;;15.00;8.37;;;;;;;20.14;53.74;95124.47;5071169;28;20187;-75
2021/04/30 06:48:56;;;;;;;15.10;8.57;;;;;;;20.21;53.25;95129.41;5070579;28;20191;-73
2021/04/30 06:51:23;;;;;;;16.53;7.53;;;;;;;20.38;52.22;95134.75;5070999;28;20294;-73
2021/04/30 06:53:49;;;;;;;15.90;7.57;;;;;;;20.47;50.86;95130.25;5070557;28;20247;-74
2021/04/30 06:56:16;;;;;;;18.00;7.17;;;;;;;20.55;49.96;95129.44;5070702;28;20199;-74
2021/04/30 06:58:43;;;;;;;19.50;7.80;;;;;;;20.71;49.47;95130.56;5070229;28;20340;-76
2021/04/30 07:01:10;;;;;;;16.20;8.17;;;;;;;20.74;50.32;95111.31;5070720;28;20265;-73
2021/04/30 07:03:37;;;;;;;19.13;8.07;;;;;;;20.71;50.89;95122.56;5070485;28;20189;-73
2021/04/30 07:06:03;;;;;;;19.73;7.80;;;;;;;21.02;49.65;95122.44;5070335;28;20191;-71
2021/04/30 07:08:30;;;;;;;16.67;7.50;;;;;;;21.11;50.01;95137.31;5069955;28;20228;-71
2021/04/30 07:10:56;;;;;;;17.47;7.50;;;;;;;21.06;49.84;95134.81;5070253;28;20216;-72
2021/04/30 07:13:23;;;;;;;16.17;7.67;;;;;;;21.09;49.98;95120.84;5070029;28;20290;-72
2021/04/30 07:15:49;;;;;;;17.70;7.47;;;;;;;21.17;49.62;95134.50;5070208;28;20214;-70
2021/04/30 07:18:16;;;;;;;23.73;8.20;;;;;;;21.26;49.73;95127.28;5070182;28;20265;-71
2021/04/30 07:20:43;;;;;;;15.37;7.23;;;;;;;21.45;49.15;95125.03;5070069;28;20638;-71
2021/04/30 07:23:10;;;;;;;16.90;8.00;;;;;;;21.53;49.45;95121.56;5069485;28;20218;-72
2021/04/30 07:25:36;;;;;;;21.47;7.17;;;;;;;21.57;49.38;95123.25;5069521;28;20760;-70
2021/04/30 07:28:03;;;;;;;19.50;7.43;;;;;;;21.66;49.14;95115.25;5068829;28;20616;-71
2021/04/30 07:30:29;;;;;;;19.57;8.53;;;;;;;21.78;48.47;95128.69;5070180;28;20195;-73
2021/04/30 07:32:55;;;;;;;19.67;8.50;;;;;;;21.83;49.17;95120.53;5069590;28;20191;-72
2021/04/30 07:35:39;;;;;;;17.27;7.00;;;;;;;21.94;48.62;95119.09;5070105;28;20207;-71
2021/04/30 07:38:06;;;;;;;20.47;6.73;;;;;;;21.92;48.13;95118.63;5069654;28;20179;-72
2021/04/30 07:40:33;;;;;;;11.03;6.10;;;;;;;21.93;47.44;95122.88;5071931;28;20233;-71
2021/04/30 07:43:00;;;;;;;14.93;6.20;;;;;;;22.11;46.67;95116.34;5072803;28;20215;-71
2021/04/30 07:45:27;;;;;;;14.93;6.37;;;;;;;22.17;46.90;95116.94;5070124;28;20218;-71
2021/04/30 07:47:53;;;;;;;16.20;6.23;;;;;;;22.26;46.13;95105.13;5069288;28;20191;-72
2021/04/30 07:50:21;;;;;;;16.40;6.20;;;;;;;22.45;45.32;95102.78;5069744;28;20188;-71
2021/04/30 07:52:48;;;;;;;14.80;5.67;;;;;;;22.36;45.69;95096.72;5068998;28;20194;-71
2021/04/30 07:55:14;;;;;;;15.10;5.90;;;;;;;22.50;45.22;95113.25;5069666;28;20207;-73
2021/04/30 07:57:42;;;;;;;24.33;6.90;;;;;;;22.64;45.06;95105.84;5069068;28;20553;-72
2021/04/30 08:00:09;;;;;;;16.40;6.23;;;;;;;22.67;44.60;95097.16;5070023;28;20299;-71
2021/04/30 08:02:39;;;;;;;14.43;5.43;;;;;;;22.67;44.93;95097.16;5069469;28;20207;-70
2021/04/30 08:05:07;;;;;;;18.83;5.90;;;;;;;22.78;43.84;95095.66;5069501;28;20241;-71
2021/04/30 08:07:33;;;;;;;16.63;5.43;;;;;;;22.80;43.74;95090.78;5068429;28;20282;-71
2021/04/30 08:10:00;;;;;;;14.87;5.00;;;;;;;23.06;43.44;95099.31;5069520;28;20239;-72
2021/04/30 08:12:26;;;;;;;14.57;5.67;;;;;;;23.16;44.03;95095.47;5068783;28;20191;-70
2021/04/30 08:14:52;;;;;;;19.60;6.77;;;;;;;23.21;43.93;95094.50;5069390;28;20330;-71
2021/04/30 08:17:19;;;;;;;15.10;6.13;;;;;;;23.31;43.98;95088.75;5068708;28;20282;-72
2021/04/30 08:19:45;;;;;;;16.63;5.97;;;;;;;23.28;44.09;95084.03;5069332;28;20269;-71
2021/04/30 08:22:12;;;;;;;15.97;6.40;;;;;;;23.33;43.41;95081.19;5068935;28;20195;-71
2021/04/30 08:24:38;;;;;;;17.10;6.40;;;;;;;23.32;43.85;95084.97;5069270;28;20307;-69
2021/04/30 08:27:05;;;;;;;14.70;5.70;;;;;;;23.66;43.76;95079.25;5069255;28;20187;-70
2021/04/30 08:29:32;;;;;;;17.23;5.20;;;;;;;23.77;43.14;95075.03;5069359;28;20615;-71
2021/04/30 08:31:59;;;;;;;22.50;5.90;;;;;;;23.89;43.10;95077.69;5068636;28;20746;-73
2021/04/30 08:34:26;;;;;;;12.63;5.30;;;;;;;23.77;42.05;95067.00;5069266;28;20223;-71
2021/04/30 08:37:11;;;;;;;18.00;5.03;;;;;;;23.79;41.67;95078.16;5068807;28;20188;-71
2021/04/30 08:39:39;;;;;;;15.73;4.70;;;;;;;23.92;41.69;95060.97;5073525;28;20191;-70
2021/04/30 08:42:06;;;;;;;11.50;5.47;;;;;;;24.05;42.80;95065.22;5072863;28;20203;-72
2021/04/30 08:44:39;;;;;;;13.60;4.30;;;;;;;24.15;42.33;95059.44;5073608;28;20195;-71
2021/04/30 08:47:06;;;;;;;10.50;4.90;;;;;;;24.12;42.43;95064.69;5072434;28;20623;-70
2021/04/30 08:49:34;;;;;;;10.23;4.73;;;;;;;24.06;41.72;95054.19;5073464;28;20206;-70
2021/04/30 08:52:02;;;;;;;11.87;4.90;;;;;;;24.27;40.34;95064.00;5072365;28;20210;-72
2021/04/30 08:54:29;;;;;;;10.70;4.30;;;;;;;24.34;40.07;95056.97;5072851;28;20227;-70
2021/04/30 08:57:03;;;;;;;12.70;4.70;;;;;;;24.34;40.49;95056.97;5072003;28;20210;-71
2021/04/30 08:59:30;;;;;;;10.30;3.73;;;;;;;24.38;39.29;95057.81;5073020;28;20274;-71
2021/04/30 09:01:58;;;;;;;16.17;4.10;;;;;;;24.51;39.66;95053.22;5072452;28;20885;-70
2021/04/30 09:04:25;;;;;;;11.73;4.50;;;;;;;24.74;38.79;95055.06;5073024;28;20279;-70
2021/04/30 09:06:52;;;;;;;12.33;4.27;;;;;;;24.86;39.49;95047.00;5075535;28;20196;-71
2021/04/30 09:09:20;;;;;;;12.30;4.30;;;;;;;25.06;39.03;95040.66;5072720;28;20277;-70
2021/04/30 09:11:51;;;;;;;12.27;4.37;;;;;;;24.92;38.40;95045.66;5072079;28;20200;-70
2021/04/30 09:14:22;;;;;;;11.10;4.30;;;;;;;25.23;38.52;95044.13;5072667;28;20200;-71
2021/04/30 09:17:01;;;;;;;11.37;4.10;;;;;;;25.31;36.58;95046.66;5071970;28;20253;-73
2021/04/30 09:19:55;;;;;;;14.63;3.80;;;;;;;25.07;35.29;95041.44;5054753;28;20223;-71
2021/04/30 09:22:26;;;;;;;11.17;4.00;;;;;;;24.91;35.51;95044.06;5071910;28;20196;-71
2021/04/30 09:25:05;;;;;;;11.37;3.63;;;;;;;24.97;36.51;95010.53;5072129;28;20245;-72
2021/04/30 09:27:47;;;;;;;10.63;3.17;;;;;;;25.02;36.24;95018.31;5071807;28;20286;-71
2021/04/30 09:30:16;;;;;;;7.93;4.00;;;;;;;25.29;35.45;95026.69;5072585;28;20290;-71
2021/04/30 09:33:15;;;;;;;12.57;4.03;;;;;;;25.41;35.22;95026.63;5071988;28;20226;-70
2021/04/30 09:35:51;;;;;;;16.73;4.00;;;;;;;25.70;35.67;95026.19;5072087;28;20183;-71
2021/04/30 09:38:29;;;;;;;15.43;4.03;;;;;;;25.55;35.30;95019.72;5071762;28;20310;-70
2021/04/30 09:41:01;;;;;;;17.33;4.17;;;;;;;25.64;34.81;95023.00;5072203;28;20759;-70
2021/04/30 09:43:51;;;;;;;12.73;3.97;;;;;;;25.80;35.68;95020.31;5071331;28;20290;-71
2021/04/30 09:46:35;;;;;;;10.33;3.40;;;;;;;26.17;34.65;95018.88;5071976;28;20216;-71
2021/04/30 09:49:21;;;;;;;17.37;4.00;;;;;;;26.25;33.49;95017.13;5052432;28;20350;-72
2021/04/30 09:51:54;;;;;;;10.10;3.63;;;;;;;26.69;31.69;95019.25;5071253;28;20683;-72
2021/04/30 09:54:26;;;;;;;13.07;3.70;;;;;;;26.60;32.82;95015.97;5071915;28;20797;-72
2021/04/30 09:57:10;;;;;;;13.27;4.17;;;;;;;26.83;33.02;95002.63;5071298;28;20199;-72
2021/04/30 09:59:40;;;;;;;12.17;3.43;;;;;;;27.16;31.95;95008.25;5071524;28;20215;-71
2021/04/30 10:02:06;;;;;;;11.40;4.03;;;;;;;27.37;32.60;95011.31;5071408;28;20203;-71
2021/04/30 10:04:34;;;;;;;14.20;3.47;;;;;;;27.59;31.54;94996.34;5072059;28;20199;-72
2021/04/30 10:07:04;;;;;;;11.63;3.60;;;;;;;27.52;30.20;94996.97;5070782;28;20195;-70
2021/04/30 10:09:33;;;;;;;15.10;3.97;;;;;;;27.94;30.95;94991.50;5071568;28;20251;-71
2021/04/30 10:12:17;;;;;;;12.90;3.63;;;;;;;28.04;30.60;94990.91;5070973;28;20227;-70
2021/04/30 10:14:44;;;;;;;8.40;3.20;;;;;;;28.37;29.24;94980.19;5071677;28;20231;-70
2021/04/30 10:17:13;;;;;;;13.77;3.63;;;;;;;28.78;29.72;94981.88;5070695;28;20194;-71
2021/04/30 10:19:44;;;;;;;15.87;4.13;;;;;;;28.53;29.81;94975.41;5071888;28;20214;-72
2021/04/30 10:22:18;;;;;;;14.13;3.33;;;;;;;29.02;29.01;94964.41;5071067;28;20260;-71
2021/04/30 10:24:52;;;;;;;12.10;3.30;;;;;;;29.26;29.25;94968.50;5071522;28;20282;-73
2021/04/30 10:27:23;;;;;;;10.60;3.70;;;;;;;29.42;28.47;94960.94;5070581;28;20206;-73
2021/04/30 10:30:00;;;;;;;11.47;3.53;;;;;;;29.47;27.35;94941.72;5074666;28;20263;-72
2021/04/30 10:32:27;;;;;;;10.40;3.80;;;;;;;29.42;27.42;94942.03;5071491;28;20222;-70
2021/04/30 10:34:55;;;;;;;9.60;3.10;;;;;;;29.58;28.00;94945.28;5071096;28;20219;-70
2021/04/30 10:37:28;;;;;;;12.93;3.70;;;;;;;29.82;26.25;94952.78;5070180;28;20211;-70
2021/04/30 10:39:56;;;;;;;9.70;3.03;;;;;;;29.63;26.69;94940.31;5070999;28;20662;-71
2021/04/30 10:42:29;;;;;;;13.20;3.43;;;;;;;29.87;26.32;94947.06;5070373;28;20200;-70
2021/04/30 10:45:01;;;;;;;11.83;3.50;;;;;;;30.03;25.41;94941.34;5053036;28;20390;-71
2021/04/30 10:47:28;;;;;;;11.20;3.20;;;;;;;30.11;24.34;94938.31;5070206;28;20188;-71
2021/04/30 10:50:17;;;;;;;10.37;3.23;;;;;;;30.37;26.51;94938.09;5070766;28;20191;-70
2021/04/30 10:52:44;;;;;;;9.30;3.00;;;;;;;30.12;26.86;94929.06;5070297;28;20203;-71
2021/04/30 10:55:16;;;;;;;12.27;3.30;;;;;;;30.12;25.24;94910.13;5071097;28;20324;-70
2021/04/30 10:58:02;;;;;;;13.83;3.50;;;;;;;30.39;26.27;94922.25;5070699;28;20184;-70
2021/04/30 11:00:41;;;;;;;11.60;3.57;;;;;;;30.74;26.52;94911.56;5070690;28;20556;-70
2021/04/30 11:03:22;;;;;;;14.37;3.53;;;;;;;30.56;26.13;94915.38;5070506;28;20187;-70
2021/04/30 11:05:59;;;;;;;12.03;3.10;;;;;;;30.47;25.10;94902.22;5071217;28;20185;-71
2021/04/30 11:08:52;;;;;;;13.43;3.90;;;;;;;30.49;25.52;94899.13;5051973;28;20696;-71
2021/04/30 11:11:37;;;;;;;11.43;3.03;;;;;;;31.03;24.35;94900.81;5070569;28;20223;-70
2021/04/30 11:14:24;;;;;;;12.53;2.90;;;;;;;30.91;23.72;94893.06;5069633;28;20707;-71
2021/04/30 11:16:55;;;;;;;15.53;3.40;;;;;;;30.78;25.34;94885.28;5070312;28;20195;-71
2021/04/30 11:19:25;;;;;;;12.37;2.90;;;;;;;31.05;25.60;94876.84;5070472;28;20207;-70
2021/04/30 11:21:54;;;;;;;9.43;3.40;;;;;;;31.35;25.17;94863.72;5069952;28;20230;-71
2021/04/30 11:24:30;;;;;;;11.00;3.10;;;;;;;31.08;25.69;94876.06;5070432;28;20211;-70
2021/04/30 11:27:11;;;;;;;18.40;3.70;;;;;;;30.59;25.25;94874.03;5069663;28;20207;-71
2021/04/30 11:29:41;;;;;;;10.63;3.10;;;;;;;30.52;24.91;94868.59;5070052;28;20211;-71